sensor_id;sensor_type;location;lat;lon;timestamp;temperature;humidity
68746;SHT31;66104;45.456;11.064;2023-06-10T00:00:22;24.16;59.30
68746;SHT31;66104;45.456;11.064;2023-06-10T00:03:01;24.15;59.56
68746;SHT31;66104;45.456;11.064;2023-06-10T00:05:40;24.14;59.51
68746;SHT31;66104;45.456;11.064;2023-06-10T00:08:20;24.14;59.43
68746;SHT31;66104;45.456;11.064;2023-06-10T00:11:00;24.13;58.82
68746;SHT31;66104;45.456;11.064;2023-06-10T00:13:38;24.10;58.85
68746;SHT31;66104;45.456;11.064;2023-06-10T00:16:16;24.09;58.93
68746;SHT31;66104;45.456;11.064;2023-06-10T00:18:54;24.08;58.91
68746;SHT31;66104;45.456;11.064;2023-06-10T00:21:32;24.05;58.80
68746;SHT31;66104;45.456;11.064;2023-06-10T00:24:10;23.99;58.66
68746;SHT31;66104;45.456;11.064;2023-06-10T00:26:48;23.87;58.74
68746;SHT31;66104;45.456;11.064;2023-06-10T00:29:26;23.83;58.29
68746;SHT31;66104;45.456;11.064;2023-06-10T00:32:10;23.78;58.06
68746;SHT31;66104;45.456;11.064;2023-06-10T00:34:49;23.73;58.39
68746;SHT31;66104;45.456;11.064;2023-06-10T00:37:26;23.70;58.84
68746;SHT31;66104;45.456;11.064;2023-06-10T00:40:07;23.65;58.82
68746;SHT31;66104;45.456;11.064;2023-06-10T00:42:46;23.58;58.76
68746;SHT31;66104;45.456;11.064;2023-06-10T00:45:25;23.53;58.74
68746;SHT31;66104;45.456;11.064;2023-06-10T00:48:03;23.48;58.66
68746;SHT31;66104;45.456;11.064;2023-06-10T00:50:42;23.45;58.55
68746;SHT31;66104;45.456;11.064;2023-06-10T00:53:21;23.44;58.51
68746;SHT31;66104;45.456;11.064;2023-06-10T00:56:01;23.45;58.47
68746;SHT31;66104;45.456;11.064;2023-06-10T00:58:43;23.45;58.64
68746;SHT31;66104;45.456;11.064;2023-06-10T01:01:22;23.42;58.94
68746;SHT31;66104;45.456;11.064;2023-06-10T01:04:03;23.38;59.14
68746;SHT31;66104;45.456;11.064;2023-06-10T01:06:44;23.33;59.35
68746;SHT31;66104;45.456;11.064;2023-06-10T01:09:37;23.33;59.30
68746;SHT31;66104;45.456;11.064;2023-06-10T01:12:26;23.35;59.16
68746;SHT31;66104;45.456;11.064;2023-06-10T01:15:12;23.34;58.69
68746;SHT31;66104;45.456;11.064;2023-06-10T11:27:17;27.82;49.47
68746;SHT31;66104;45.456;11.064;2023-06-10T11:30:17;27.89;49.61
68746;SHT31;66104;45.456;11.064;2023-06-10T11:33:06;27.95;49.58
68746;SHT31;66104;45.456;11.064;2023-06-10T11:35:50;28.05;49.62
68746;SHT31;66104;45.456;11.064;2023-06-10T11:38:29;28.11;49.35
68746;SHT31;66104;45.456;11.064;2023-06-10T11:41:06;28.16;49.31
68746;SHT31;66104;45.456;11.064;2023-06-10T11:43:45;28.21;48.96
68746;SHT31;66104;45.456;11.064;2023-06-10T11:46:23;28.28;48.88
68746;SHT31;66104;45.456;11.064;2023-06-10T11:49:03;28.35;48.92
68746;SHT31;66104;45.456;11.064;2023-06-10T11:51:40;28.42;49.11
68746;SHT31;66104;45.456;11.064;2023-06-10T11:54:20;28.45;48.83
68746;SHT31;66104;45.456;11.064;2023-06-10T11:56:59;28.47;48.97
68746;SHT31;66104;45.456;11.064;2023-06-10T11:59:37;28.47;49.03
68746;SHT31;66104;45.456;11.064;2023-06-10T12:02:17;28.45;48.28
68746;SHT31;66104;45.456;11.064;2023-06-10T12:04:56;28.41;48.72
68746;SHT31;66104;45.456;11.064;2023-06-10T12:07:48;28.42;48.87
68746;SHT31;66104;45.456;11.064;2023-06-10T12:10:45;28.46;49.02
68746;SHT31;66104;45.456;11.064;2023-06-10T12:13:26;28.49;48.74
68746;SHT31;66104;45.456;11.064;2023-06-10T12:16:09;28.57;48.95
68746;SHT31;66104;45.456;11.064;2023-06-10T12:18:48;28.64;48.10
68746;SHT31;66104;45.456;11.064;2023-06-10T12:21:32;28.68;48.21
68746;SHT31;66104;45.456;11.064;2023-06-10T12:24:11;28.71;48.13
68746;SHT31;66104;45.456;11.064;2023-06-10T12:26:53;28.69;48.06
68746;SHT31;66104;45.456;11.064;2023-06-10T12:29:31;28.70;48.22
68746;SHT31;66104;45.456;11.064;2023-06-10T12:32:09;28.71;48.12
68746;SHT31;66104;45.456;11.064;2023-06-10T12:34:48;28.68;47.98
68746;SHT31;66104;45.456;11.064;2023-06-10T12:37:37;28.65;48.26
68746;SHT31;66104;45.456;11.064;2023-06-10T12:40:30;28.63;48.54
68746;SHT31;66104;45.456;11.064;2023-06-10T12:43:10;28.58;48.56
68746;SHT31;66104;45.456;11.064;2023-06-10T12:45:54;28.55;48.48
68746;SHT31;66104;45.456;11.064;2023-06-10T12:48:50;28.47;48.05
68746;SHT31;66104;45.456;11.064;2023-06-10T12:51:27;28.38;47.97
68746;SHT31;66104;45.456;11.064;2023-06-10T12:54:06;28.26;48.22
68746;SHT31;66104;45.456;11.064;2023-06-10T12:56:44;28.30;48.71
68746;SHT31;66104;45.456;11.064;2023-06-10T12:59:21;28.40;48.56
68746;SHT31;66104;45.456;11.064;2023-06-10T13:01:59;28.38;48.45
68746;SHT31;66104;45.456;11.064;2023-06-10T13:04:38;28.32;48.80
68746;SHT31;66104;45.456;11.064;2023-06-10T13:07:17;28.17;49.03
68746;SHT31;66104;45.456;11.064;2023-06-10T13:09:54;28.06;49.29
68746;SHT31;66104;45.456;11.064;2023-06-10T13:12:32;28.08;49.60
68746;SHT31;66104;45.456;11.064;2023-06-10T13:15:17;28.16;49.37
68746;SHT31;66104;45.456;11.064;2023-06-10T13:17:55;28.15;49.50
68746;SHT31;66104;45.456;11.064;2023-06-10T13:20:32;28.11;49.43
68746;SHT31;66104;45.456;11.064;2023-06-10T13:23:09;28.04;49.63
68746;SHT31;66104;45.456;11.064;2023-06-10T13:25:46;28.05;49.86
68746;SHT31;66104;45.456;11.064;2023-06-10T13:28:23;28.10;49.65
68746;SHT31;66104;45.456;11.064;2023-06-10T13:31:03;28.10;49.57
68746;SHT31;66104;45.456;11.064;2023-06-10T13:33:40;28.12;49.71
68746;SHT31;66104;45.456;11.064;2023-06-10T13:36:16;28.16;49.92
68746;SHT31;66104;45.456;11.064;2023-06-10T13:38:52;28.17;50.01
68746;SHT31;66104;45.456;11.064;2023-06-10T13:41:29;28.16;50.15
68746;SHT31;66104;45.456;11.064;2023-06-10T13:44:06;28.14;49.82
68746;SHT31;66104;45.456;11.064;2023-06-10T13:46:44;28.15;49.84
68746;SHT31;66104;45.456;11.064;2023-06-10T13:49:21;28.12;49.74
68746;SHT31;66104;45.456;11.064;2023-06-10T13:51:58;28.08;49.59
68746;SHT31;66104;45.456;11.064;2023-06-10T13:54:36;28.04;49.48
68746;SHT31;66104;45.456;11.064;2023-06-10T13:57:14;28.02;49.41
68746;SHT31;66104;45.456;11.064;2023-06-10T13:59:51;28.01;49.35
68746;SHT31;66104;45.456;11.064;2023-06-10T14:02:31;28.01;49.53
68746;SHT31;66104;45.456;11.064;2023-06-10T14:05:10;28.02;49.46
68746;SHT31;66104;45.456;11.064;2023-06-10T14:07:50;28.01;49.27
68746;SHT31;66104;45.456;11.064;2023-06-10T14:10:30;27.97;49.19
68746;SHT31;66104;45.456;11.064;2023-06-10T14:13:08;27.95;49.21
68746;SHT31;66104;45.456;11.064;2023-06-10T14:16:05;27.97;49.19
68746;SHT31;66104;45.456;11.064;2023-06-10T14:18:43;27.97;49.55
68746;SHT31;66104;45.456;11.064;2023-06-10T14:21:20;28.06;49.50
68746;SHT31;66104;45.456;11.064;2023-06-10T14:23:57;28.17;49.20
68746;SHT31;66104;45.456;11.064;2023-06-10T14:26:35;28.29;49.05
68746;SHT31;66104;45.456;11.064;2023-06-10T14:29:13;28.38;48.95
68746;SHT31;66104;45.456;11.064;2023-06-10T14:31:49;28.48;48.79
68746;SHT31;66104;45.456;11.064;2023-06-10T14:34:26;28.57;48.48
68746;SHT31;66104;45.456;11.064;2023-06-10T14:37:03;28.63;47.88
68746;SHT31;66104;45.456;11.064;2023-06-10T14:39:42;28.70;47.57
68746;SHT31;66104;45.456;11.064;2023-06-10T14:42:19;28.77;47.12
68746;SHT31;66104;45.456;11.064;2023-06-10T14:44:57;28.84;46.92
68746;SHT31;66104;45.456;11.064;2023-06-10T14:47:35;28.91;46.91
68746;SHT31;66104;45.456;11.064;2023-06-10T14:50:14;28.97;46.80
68746;SHT31;66104;45.456;11.064;2023-06-10T14:52:51;29.03;46.66
68746;SHT31;66104;45.456;11.064;2023-06-10T14:55:29;29.07;46.50
68746;SHT31;66104;45.456;11.064;2023-06-10T14:58:06;29.12;46.80
68746;SHT31;66104;45.456;11.064;2023-06-10T15:00:44;29.16;47.10
68746;SHT31;66104;45.456;11.064;2023-06-10T15:03:21;29.18;47.07
68746;SHT31;66104;45.456;11.064;2023-06-10T15:05:58;29.18;46.77
68746;SHT31;66104;45.456;11.064;2023-06-10T15:08:35;29.14;46.83
68746;SHT31;66104;45.456;11.064;2023-06-10T15:11:14;29.12;46.98
68746;SHT31;66104;45.456;11.064;2023-06-10T15:13:51;29.14;47.16
68746;SHT31;66104;45.456;11.064;2023-06-10T15:16:27;29.18;47.04
68746;SHT31;66104;45.456;11.064;2023-06-10T15:19:05;29.21;46.90
68746;SHT31;66104;45.456;11.064;2023-06-10T15:21:40;29.23;46.71
68746;SHT31;66104;45.456;11.064;2023-06-10T15:24:17;29.25;46.66
68746;SHT31;66104;45.456;11.064;2023-06-10T15:26:54;29.28;46.30
68746;SHT31;66104;45.456;11.064;2023-06-10T15:29:31;29.30;46.19
68746;SHT31;66104;45.456;11.064;2023-06-10T15:32:09;29.32;46.27
68746;SHT31;66104;45.456;11.064;2023-06-10T15:34:47;29.32;46.44
68746;SHT31;66104;45.456;11.064;2023-06-10T15:37:25;29.25;46.12
68746;SHT31;66104;45.456;11.064;2023-06-10T15:40:01;29.23;46.30
68746;SHT31;66104;45.456;11.064;2023-06-10T15:42:43;29.26;46.28
68746;SHT31;66104;45.456;11.064;2023-06-10T15:45:20;29.27;45.82
68746;SHT31;66104;45.456;11.064;2023-06-10T15:48:00;29.24;45.80
68746;SHT31;66104;45.456;11.064;2023-06-10T15:50:38;29.22;45.62
68746;SHT31;66104;45.456;11.064;2023-06-10T15:53:16;29.25;45.78
68746;SHT31;66104;45.456;11.064;2023-06-10T15:55:53;29.28;45.64
68746;SHT31;66104;45.456;11.064;2023-06-10T15:58:29;29.33;45.55
68746;SHT31;66104;45.456;11.064;2023-06-10T16:01:07;29.34;45.35
68746;SHT31;66104;45.456;11.064;2023-06-10T16:03:44;29.32;45.13
68746;SHT31;66104;45.456;11.064;2023-06-10T16:06:22;29.25;45.01
68746;SHT31;66104;45.456;11.064;2023-06-10T16:09:00;29.18;45.24
68746;SHT31;66104;45.456;11.064;2023-06-10T16:11:37;29.16;45.33
68746;SHT31;66104;45.456;11.064;2023-06-10T16:14:14;29.18;45.10
68746;SHT31;66104;45.456;11.064;2023-06-10T16:16:52;29.16;45.06
68746;SHT31;66104;45.456;11.064;2023-06-10T16:19:30;29.12;45.39
68746;SHT31;66104;45.456;11.064;2023-06-10T16:22:08;29.08;45.03
68746;SHT31;66104;45.456;11.064;2023-06-10T16:24:45;29.04;45.11
68746;SHT31;66104;45.456;11.064;2023-06-10T16:27:23;28.96;45.36
68746;SHT31;66104;45.456;11.064;2023-06-10T16:30:02;28.84;45.44
68746;SHT31;66104;45.456;11.064;2023-06-10T16:32:44;28.75;45.67
68746;SHT31;66104;45.456;11.064;2023-06-10T16:35:23;28.71;45.82
68746;SHT31;66104;45.456;11.064;2023-06-10T16:38:00;28.68;45.76
68746;SHT31;66104;45.456;11.064;2023-06-10T16:40:39;28.63;45.73
68746;SHT31;66104;45.456;11.064;2023-06-10T16:43:17;28.60;45.95
68746;SHT31;66104;45.456;11.064;2023-06-10T16:45:56;28.62;46.16
68746;SHT31;66104;45.456;11.064;2023-06-10T16:48:34;28.69;46.24
68746;SHT31;66104;45.456;11.064;2023-06-10T16:51:14;28.70;45.90
68746;SHT31;66104;45.456;11.064;2023-06-10T16:53:51;28.67;45.94
68746;SHT31;66104;45.456;11.064;2023-06-10T16:56:29;28.63;45.87
68746;SHT31;66104;45.456;11.064;2023-06-10T16:59:06;28.59;45.83
68746;SHT31;66104;45.456;11.064;2023-06-10T17:01:44;28.55;45.78
68746;SHT31;66104;45.456;11.064;2023-06-10T17:04:21;28.51;45.77
68746;SHT31;66104;45.456;11.064;2023-06-10T17:06:58;28.49;45.64
68746;SHT31;66104;45.456;11.064;2023-06-10T17:09:38;28.42;45.70
68746;SHT31;66104;45.456;11.064;2023-06-10T17:12:15;28.39;45.77
68746;SHT31;66104;45.456;11.064;2023-06-10T17:14:53;28.35;45.89
68746;SHT31;66104;45.456;11.064;2023-06-10T17:17:31;28.28;46.11
68746;SHT31;66104;45.456;11.064;2023-06-10T17:20:12;28.22;46.12
68746;SHT31;66104;45.456;11.064;2023-06-10T17:22:49;28.16;46.56
68746;SHT31;66104;45.456;11.064;2023-06-10T17:25:27;28.11;46.70
68746;SHT31;66104;45.456;11.064;2023-06-10T17:28:06;28.04;47.15
68746;SHT31;66104;45.456;11.064;2023-06-10T17:30:44;27.93;47.69
68746;SHT31;66104;45.456;11.064;2023-06-10T17:33:21;27.84;47.83
68746;SHT31;66104;45.456;11.064;2023-06-10T17:35:59;27.77;48.07
68746;SHT31;66104;45.456;11.064;2023-06-10T17:38:38;27.73;48.25
68746;SHT31;66104;45.456;11.064;2023-06-10T17:41:16;27.66;48.52
68746;SHT31;66104;45.456;11.064;2023-06-10T17:43:54;27.60;48.68
68746;SHT31;66104;45.456;11.064;2023-06-10T17:46:31;27.55;48.96
68746;SHT31;66104;45.456;11.064;2023-06-10T17:49:08;27.48;49.17
68746;SHT31;66104;45.456;11.064;2023-06-10T17:51:45;27.41;49.13
68746;SHT31;66104;45.456;11.064;2023-06-10T17:54:23;27.31;49.10
68746;SHT31;66104;45.456;11.064;2023-06-10T17:57:00;27.24;49.38
68746;SHT31;66104;45.456;11.064;2023-06-10T17:59:37;27.17;49.73
68746;SHT31;66104;45.456;11.064;2023-06-10T18:02:14;27.08;49.85
68746;SHT31;66104;45.456;11.064;2023-06-10T18:04:51;27.02;50.09
68746;SHT31;66104;45.456;11.064;2023-06-10T18:07:28;26.92;50.43
68746;SHT31;66104;45.456;11.064;2023-06-10T18:10:07;26.79;50.74
68746;SHT31;66104;45.456;11.064;2023-06-10T18:12:45;26.66;50.96
68746;SHT31;66104;45.456;11.064;2023-06-10T18:15:22;26.52;51.06
68746;SHT31;66104;45.456;11.064;2023-06-10T18:18:05;26.42;51.73
68746;SHT31;66104;45.456;11.064;2023-06-10T18:20:42;26.30;52.27
68746;SHT31;66104;45.456;11.064;2023-06-10T18:23:19;26.13;52.30
68746;SHT31;66104;45.456;11.064;2023-06-10T18:25:56;25.80;51.89
68746;SHT31;66104;45.456;11.064;2023-06-10T18:28:33;25.48;51.51
68746;SHT31;66104;45.456;11.064;2023-06-10T18:31:10;25.08;51.17
68746;SHT31;66104;45.456;11.064;2023-06-10T18:33:47;24.75;51.80
68746;SHT31;66104;45.456;11.064;2023-06-10T18:36:25;24.53;52.36
68746;SHT31;66104;45.456;11.064;2023-06-10T18:39:02;24.43;52.67
68746;SHT31;66104;45.456;11.064;2023-06-10T18:41:39;24.33;52.84
68746;SHT31;66104;45.456;11.064;2023-06-10T18:44:16;24.11;53.06
68746;SHT31;66104;45.456;11.064;2023-06-10T18:46:53;23.89;53.85
68746;SHT31;66104;45.456;11.064;2023-06-10T18:49:30;23.72;54.52
68746;SHT31;66104;45.456;11.064;2023-06-10T18:52:07;23.57;55.06
68746;SHT31;66104;45.456;11.064;2023-06-10T18:54:44;23.41;55.88
68746;SHT31;66104;45.456;11.064;2023-06-10T18:57:22;23.21;57.83
68746;SHT31;66104;45.456;11.064;2023-06-10T18:59:58;22.98;59.41
68746;SHT31;66104;45.456;11.064;2023-06-10T19:02:38;22.78;59.98
68746;SHT31;66104;45.456;11.064;2023-06-10T19:05:16;22.67;61.01
68746;SHT31;66104;45.456;11.064;2023-06-10T19:07:54;22.71;61.68
68746;SHT31;66104;45.456;11.064;2023-06-10T19:10:30;22.73;62.06
68746;SHT31;66104;45.456;11.064;2023-06-10T19:13:08;22.70;61.63
68746;SHT31;66104;45.456;11.064;2023-06-10T19:15:43;22.65;61.61
68746;SHT31;66104;45.456;11.064;2023-06-10T19:18:20;22.57;62.39
68746;SHT31;66104;45.456;11.064;2023-06-10T19:20:57;22.49;63.22
68746;SHT31;66104;45.456;11.064;2023-06-10T19:23:36;22.42;63.85
68746;SHT31;66104;45.456;11.064;2023-06-10T19:26:13;22.37;64.58
68746;SHT31;66104;45.456;11.064;2023-06-10T19:28:50;22.33;64.86
68746;SHT31;66104;45.456;11.064;2023-06-10T19:31:26;22.34;65.31
68746;SHT31;66104;45.456;11.064;2023-06-10T19:34:03;22.34;64.91
68746;SHT31;66104;45.456;11.064;2023-06-10T19:36:40;22.40;64.30
68746;SHT31;66104;45.456;11.064;2023-06-10T19:39:18;22.44;63.50
68746;SHT31;66104;45.456;11.064;2023-06-10T19:41:55;22.47;63.41
68746;SHT31;66104;45.456;11.064;2023-06-10T19:44:33;22.46;63.86
68746;SHT31;66104;45.456;11.064;2023-06-10T19:47:10;22.41;64.33
68746;SHT31;66104;45.456;11.064;2023-06-10T19:49:47;22.39;64.67
68746;SHT31;66104;45.456;11.064;2023-06-10T19:52:24;22.40;64.63
68746;SHT31;66104;45.456;11.064;2023-06-10T19:55:01;22.41;64.61
68746;SHT31;66104;45.456;11.064;2023-06-10T19:57:43;22.42;64.20
68746;SHT31;66104;45.456;11.064;2023-06-10T20:00:22;22.41;64.13
68746;SHT31;66104;45.456;11.064;2023-06-10T20:03:01;22.32;64.20
68746;SHT31;66104;45.456;11.064;2023-06-10T20:05:38;22.18;64.66
68746;SHT31;66104;45.456;11.064;2023-06-10T20:08:15;22.13;64.93
68746;SHT31;66104;45.456;11.064;2023-06-10T20:10:52;22.13;64.74
68746;SHT31;66104;45.456;11.064;2023-06-10T20:13:29;21.97;64.93
68746;SHT31;66104;45.456;11.064;2023-06-10T20:16:07;21.80;65.56
68746;SHT31;66104;45.456;11.064;2023-06-10T20:18:50;21.69;66.09
68746;SHT31;66104;45.456;11.064;2023-06-10T20:21:27;21.80;65.20
68746;SHT31;66104;45.456;11.064;2023-06-10T20:24:05;21.91;65.35
68746;SHT31;66104;45.456;11.064;2023-06-10T20:26:44;21.98;65.24
68746;SHT31;66104;45.456;11.064;2023-06-10T20:29:21;22.02;65.36
68746;SHT31;66104;45.456;11.064;2023-06-10T20:31:58;22.04;65.46
68746;SHT31;66104;45.456;11.064;2023-06-10T20:34:35;22.06;65.26
68746;SHT31;66104;45.456;11.064;2023-06-10T20:37:14;22.08;65.13
68746;SHT31;66104;45.456;11.064;2023-06-10T20:39:52;22.07;64.79
68746;SHT31;66104;45.456;11.064;2023-06-10T20:42:28;22.02;64.60
68746;SHT31;66104;45.456;11.064;2023-06-10T20:45:06;21.95;64.72
68746;SHT31;66104;45.456;11.064;2023-06-10T20:47:47;21.89;65.07
68746;SHT31;66104;45.456;11.064;2023-06-10T20:50:24;21.88;64.76
68746;SHT31;66104;45.456;11.064;2023-06-10T20:53:01;21.88;64.74
68746;SHT31;66104;45.456;11.064;2023-06-10T20:55:38;21.92;64.66
68746;SHT31;66104;45.456;11.064;2023-06-10T20:58:15;22.00;64.58
68746;SHT31;66104;45.456;11.064;2023-06-10T21:00:53;22.01;64.60
68746;SHT31;66104;45.456;11.064;2023-06-10T21:03:30;21.89;65.37
68746;SHT31;66104;45.456;11.064;2023-06-10T21:06:08;21.78;66.40
68746;SHT31;66104;45.456;11.064;2023-06-10T21:08:44;21.72;66.82
68746;SHT31;66104;45.456;11.064;2023-06-10T21:11:22;21.66;67.30
68746;SHT31;66104;45.456;11.064;2023-06-10T21:13:59;21.60;67.69
68746;SHT31;66104;45.456;11.064;2023-06-10T21:16:36;21.61;67.86
68746;SHT31;66104;45.456;11.064;2023-06-10T21:19:13;21.63;68.16
68746;SHT31;66104;45.456;11.064;2023-06-10T21:21:49;21.65;68.52
68746;SHT31;66104;45.456;11.064;2023-06-10T21:24:28;21.71;68.61
68746;SHT31;66104;45.456;11.064;2023-06-10T21:27:06;21.81;68.61
68746;SHT31;66104;45.456;11.064;2023-06-10T21:29:45;21.94;68.26
68746;SHT31;66104;45.456;11.064;2023-06-10T21:32:22;22.02;67.74
68746;SHT31;66104;45.456;11.064;2023-06-10T21:35:00;22.07;67.07
68746;SHT31;66104;45.456;11.064;2023-06-10T21:37:39;22.10;67.02
68746;SHT31;66104;45.456;11.064;2023-06-10T21:40:17;22.13;66.77
68746;SHT31;66104;45.456;11.064;2023-06-10T21:42:55;22.14;66.66
68746;SHT31;66104;45.456;11.064;2023-06-10T21:45:31;22.16;66.65
68746;SHT31;66104;45.456;11.064;2023-06-10T21:48:08;22.16;66.60
68746;SHT31;66104;45.456;11.064;2023-06-10T21:50:47;22.11;66.89
68746;SHT31;66104;45.456;11.064;2023-06-10T21:53:23;22.03;66.80
68746;SHT31;66104;45.456;11.064;2023-06-10T21:56:00;21.93;66.89
68746;SHT31;66104;45.456;11.064;2023-06-10T21:58:37;21.88;66.83
68746;SHT31;66104;45.456;11.064;2023-06-10T22:01:17;21.82;66.87
68746;SHT31;66104;45.456;11.064;2023-06-10T22:03:54;21.78;66.83
68746;SHT31;66104;45.456;11.064;2023-06-10T22:06:31;21.69;66.88
68746;SHT31;66104;45.456;11.064;2023-06-10T22:09:09;21.62;67.08
68746;SHT31;66104;45.456;11.064;2023-06-10T22:11:46;21.58;67.27
68746;SHT31;66104;45.456;11.064;2023-06-10T22:14:23;21.54;67.23
68746;SHT31;66104;45.456;11.064;2023-06-10T22:17:01;21.48;67.18
68746;SHT31;66104;45.456;11.064;2023-06-10T22:19:39;21.39;67.16
68746;SHT31;66104;45.456;11.064;2023-06-10T22:22:17;21.37;67.28
68746;SHT31;66104;45.456;11.064;2023-06-10T22:24:55;21.37;67.18
68746;SHT31;66104;45.456;11.064;2023-06-10T22:27:31;21.30;67.11
68746;SHT31;66104;45.456;11.064;2023-06-10T22:30:10;21.20;67.17
68746;SHT31;66104;45.456;11.064;2023-06-10T22:32:51;21.14;67.34
68746;SHT31;66104;45.456;11.064;2023-06-10T22:35:28;21.07;67.28
68746;SHT31;66104;45.456;11.064;2023-06-10T22:38:05;20.96;67.16
68746;SHT31;66104;45.456;11.064;2023-06-10T22:40:42;20.82;67.52
68746;SHT31;66104;45.456;11.064;2023-06-10T22:43:19;20.79;67.67
68746;SHT31;66104;45.456;11.064;2023-06-10T22:45:57;20.79;67.74
68746;SHT31;66104;45.456;11.064;2023-06-10T22:48:35;20.80;67.83
68746;SHT31;66104;45.456;11.064;2023-06-10T22:51:12;20.84;67.52
68746;SHT31;66104;45.456;11.064;2023-06-10T22:53:49;20.81;67.34
68746;SHT31;66104;45.456;11.064;2023-06-10T22:56:26;20.75;67.58
68746;SHT31;66104;45.456;11.064;2023-06-10T22:59:04;20.67;67.50
68746;SHT31;66104;45.456;11.064;2023-06-10T23:01:42;20.66;67.76
68746;SHT31;66104;45.456;11.064;2023-06-10T23:04:19;20.74;67.48
68746;SHT31;66104;45.456;11.064;2023-06-10T23:06:57;20.80;67.20
68746;SHT31;66104;45.456;11.064;2023-06-10T23:09:33;20.81;67.29
68746;SHT31;66104;45.456;11.064;2023-06-10T23:12:12;20.84;67.11
68746;SHT31;66104;45.456;11.064;2023-06-10T23:14:49;20.83;66.90
68746;SHT31;66104;45.456;11.064;2023-06-10T23:17:27;20.83;66.85
68746;SHT31;66104;45.456;11.064;2023-06-10T23:20:08;20.79;66.87
68746;SHT31;66104;45.456;11.064;2023-06-10T23:22:49;20.81;66.62
68746;SHT31;66104;45.456;11.064;2023-06-10T23:25:29;20.79;66.41
68746;SHT31;66104;45.456;11.064;2023-06-10T23:28:05;20.75;66.58
68746;SHT31;66104;45.456;11.064;2023-06-10T23:30:43;20.75;66.64
68746;SHT31;66104;45.456;11.064;2023-06-10T23:33:20;20.78;66.51
68746;SHT31;66104;45.456;11.064;2023-06-10T23:35:58;20.79;66.70
68746;SHT31;66104;45.456;11.064;2023-06-10T23:38:35;20.84;66.80
68746;SHT31;66104;45.456;11.064;2023-06-10T23:41:13;20.85;66.51
68746;SHT31;66104;45.456;11.064;2023-06-10T23:43:49;20.82;66.47
68746;SHT31;66104;45.456;11.064;2023-06-10T23:46:27;20.78;66.53
68746;SHT31;66104;45.456;11.064;2023-06-10T23:49:05;20.74;66.60
68746;SHT31;66104;45.456;11.064;2023-06-10T23:51:43;20.70;66.60
68746;SHT31;66104;45.456;11.064;2023-06-10T23:54:20;20.74;66.95
68746;SHT31;66104;45.456;11.064;2023-06-10T23:56:58;20.77;66.52
68746;SHT31;66104;45.456;11.064;2023-06-10T23:59:37;20.77;66.23
